sensor_id;sensor_type;location;lat;lon;timestamp;P1;durP1;ratioP1;P2;durP2;ratioP2
42098;SDS011;27758;55.900;8.516;2023-02-05T00:01:32;7.38;;;4.05;;
42098;SDS011;27758;55.900;8.516;2023-02-05T00:03:58;8.00;;;3.75;;
42098;SDS011;27758;55.900;8.516;2023-02-05T00:06:24;7.75;;;3.97;;
42098;SDS011;27758;55.900;8.516;2023-02-05T00:08:50;6.80;;;4.03;;
42098;SDS011;27758;55.900;8.516;2023-02-05T00:11:15;8.23;;;4.07;;
42098;SDS011;27758;55.900;8.516;2023-02-05T00:13:42;8.43;;;3.80;;
42098;SDS011;27758;55.900;8.516;2023-02-05T00:16:14;7.85;;;4.55;;
42098;SDS011;27758;55.900;8.516;2023-02-05T00:18:41;7.65;;;4.50;;
42098;SDS011;27758;55.900;8.516;2023-02-05T00:21:08;9.43;;;4.18;;
42098;SDS011;27758;55.900;8.516;2023-02-05T00:23:35;7.38;;;4.25;;
42098;SDS011;27758;55.900;8.516;2023-02-05T00:26:01;8.43;;;4.65;;
42098;SDS011;27758;55.900;8.516;2023-02-05T00:28:30;7.40;;;4.53;;
42098;SDS011;27758;55.900;8.516;2023-02-05T00:30:56;7.05;;;4.10;;
42098;SDS011;27758;55.900;8.516;2023-02-05T00:33:22;12.40;;;4.95;;
42098;SDS011;27758;55.900;8.516;2023-02-05T00:35:48;7.53;;;4.13;;
42098;SDS011;27758;55.900;8.516;2023-02-05T00:38:14;10.20;;;4.25;;
42098;SDS011;27758;55.900;8.516;2023-02-05T00:40:40;6.53;;;3.88;;
42098;SDS011;27758;55.900;8.516;2023-02-05T00:43:06;8.13;;;4.68;;
42098;SDS011;27758;55.900;8.516;2023-02-05T00:45:32;7.97;;;4.40;;
42098;SDS011;27758;55.900;8.516;2023-02-05T00:48:08;8.30;;;4.70;;
42098;SDS011;27758;55.900;8.516;2023-02-05T00:50:34;9.40;;;5.60;;
42098;SDS011;27758;55.900;8.516;2023-02-05T00:53:00;8.77;;;4.70;;
42098;SDS011;27758;55.900;8.516;2023-02-05T00:55:26;11.77;;;5.10;;
42098;SDS011;27758;55.900;8.516;2023-02-05T00:57:52;10.50;;;4.95;;
42098;SDS011;27758;55.900;8.516;2023-02-05T01:00:17;9.13;;;5.07;;
42098;SDS011;27758;55.900;8.516;2023-02-05T01:02:43;8.40;;;5.10;;
42098;SDS011;27758;55.900;8.516;2023-02-05T01:05:09;9.27;;;4.57;;
42098;SDS011;27758;55.900;8.516;2023-02-05T01:07:35;9.20;;;4.65;;
42098;SDS011;27758;55.900;8.516;2023-02-05T01:10:01;10.48;;;5.78;;
42098;SDS011;27758;55.900;8.516;2023-02-05T01:12:28;10.75;;;5.10;;
42098;SDS011;27758;55.900;8.516;2023-02-05T01:14:54;11.25;;;5.05;;
42098;SDS011;27758;55.900;8.516;2023-02-05T01:17:20;7.03;;;4.80;;
42098;SDS011;27758;55.900;8.516;2023-02-05T01:19:45;12.20;;;6.00;;
42098;SDS011;27758;55.900;8.516;2023-02-05T01:22:11;11.35;;;5.78;;
42098;SDS011;27758;55.900;8.516;2023-02-05T01:24:37;9.02;;;4.82;;
42098;SDS011;27758;55.900;8.516;2023-02-05T01:27:02;9.20;;;5.10;;
42098;SDS011;27758;55.900;8.516;2023-02-05T01:29:28;9.20;;;5.82;;
42098;SDS011;27758;55.900;8.516;2023-02-05T01:31:55;7.75;;;5.07;;
42098;SDS011;27758;55.900;8.516;2023-02-05T01:34:20;10.20;;;5.07;;
42098;SDS011;27758;55.900;8.516;2023-02-05T01:36:46;9.55;;;5.47;;
42098;SDS011;27758;55.900;8.516;2023-02-05T01:39:12;10.60;;;6.00;;
42098;SDS011;27758;55.900;8.516;2023-02-05T01:41:38;8.80;;;5.20;;
42098;SDS011;27758;55.900;8.516;2023-02-05T01:46:38;7.90;;;5.05;;
42098;SDS011;27758;55.900;8.516;2023-02-05T01:49:06;10.80;;;6.00;;
42098;SDS011;27758;55.900;8.516;2023-02-05T01:51:34;9.57;;;5.80;;
42098;SDS011;27758;55.900;8.516;2023-02-05T01:54:02;10.45;;;6.03;;
42098;SDS011;27758;55.900;8.516;2023-02-05T01:56:33;13.27;;;6.20;;
42098;SDS011;27758;55.900;8.516;2023-02-05T02:01:34;9.18;;;5.38;;
42098;SDS011;27758;55.900;8.516;2023-02-05T02:04:01;11.70;;;5.97;;
42098;SDS011;27758;55.900;8.516;2023-02-05T02:06:31;10.75;;;5.32;;
42098;SDS011;27758;55.900;8.516;2023-02-05T02:08:59;8.90;;;6.00;;
42098;SDS011;27758;55.900;8.516;2023-02-05T02:11:26;11.40;;;5.97;;
42098;SDS011;27758;55.900;8.516;2023-02-05T02:13:54;8.30;;;5.20;;
42098;SDS011;27758;55.900;8.516;2023-02-05T02:16:22;9.30;;;5.25;;
42098;SDS011;27758;55.900;8.516;2023-02-05T02:18:50;12.85;;;6.50;;
42098;SDS011;27758;55.900;8.516;2023-02-05T02:24:21;8.88;;;5.43;;
42098;SDS011;27758;55.900;8.516;2023-02-05T02:33:00;10.55;;;5.80;;
42098;SDS011;27758;55.900;8.516;2023-02-05T02:35:53;8.10;;;5.10;;
42098;SDS011;27758;55.900;8.516;2023-02-05T02:38:32;10.93;;;5.43;;
42098;SDS011;27758;55.900;8.516;2023-02-05T02:41:18;9.63;;;5.50;;
42098;SDS011;27758;55.900;8.516;2023-02-05T02:43:56;10.60;;;5.30;;
42098;SDS011;27758;55.900;8.516;2023-02-05T02:46:30;11.35;;;6.15;;
42098;SDS011;27758;55.900;8.516;2023-02-05T02:49:07;8.88;;;5.28;;
42098;SDS011;27758;55.900;8.516;2023-02-05T02:51:38;9.80;;;5.70;;
42098;SDS011;27758;55.900;8.516;2023-02-05T02:54:08;8.93;;;6.03;;
42098;SDS011;27758;55.900;8.516;2023-02-05T02:56:38;8.65;;;5.43;;
42098;SDS011;27758;55.900;8.516;2023-02-05T02:59:06;10.52;;;5.75;;
42098;SDS011;27758;55.900;8.516;2023-02-05T03:01:35;13.88;;;5.82;;
42098;SDS011;27758;55.900;8.516;2023-02-05T03:04:07;10.13;;;6.45;;
42098;SDS011;27758;55.900;8.516;2023-02-05T03:06:38;9.50;;;6.10;;
42098;SDS011;27758;55.900;8.516;2023-02-05T03:09:13;10.73;;;6.55;;
42098;SDS011;27758;55.900;8.516;2023-02-05T03:11:49;11.55;;;6.80;;
42098;SDS011;27758;55.900;8.516;2023-02-05T03:14:14;10.82;;;6.45;;
42098;SDS011;27758;55.900;8.516;2023-02-05T03:16:40;10.43;;;6.82;;
42098;SDS011;27758;55.900;8.516;2023-02-05T03:19:06;10.82;;;7.22;;
42098;SDS011;27758;55.900;8.516;2023-02-05T03:21:34;12.82;;;6.93;;
42098;SDS011;27758;55.900;8.516;2023-02-05T03:24:04;16.65;;;8.07;;
42098;SDS011;27758;55.900;8.516;2023-02-05T03:26:31;12.90;;;7.32;;
42098;SDS011;27758;55.900;8.516;2023-02-05T03:29:00;12.50;;;7.30;;
42098;SDS011;27758;55.900;8.516;2023-02-05T03:34:18;11.27;;;7.75;;
42098;SDS011;27758;55.900;8.516;2023-02-05T03:42:51;12.00;;;8.32;;
42098;SDS011;27758;55.900;8.516;2023-02-05T03:45:44;15.27;;;9.05;;
42098;SDS011;27758;55.900;8.516;2023-02-05T03:56:23;15.02;;;9.57;;
42098;SDS011;27758;55.900;8.516;2023-02-05T03:58:53;15.93;;;9.43;;
42098;SDS011;27758;55.900;8.516;2023-02-05T04:01:20;12.65;;;9.18;;
42098;SDS011;27758;55.900;8.516;2023-02-05T04:03:47;16.80;;;10.13;;
42098;SDS011;27758;55.900;8.516;2023-02-05T04:06:13;14.13;;;9.38;;
42098;SDS011;27758;55.900;8.516;2023-02-05T04:08:39;17.20;;;9.68;;
42098;SDS011;27758;55.900;8.516;2023-02-05T04:11:04;16.83;;;9.40;;
42098;SDS011;27758;55.900;8.516;2023-02-05T04:13:31;17.17;;;10.23;;
42098;SDS011;27758;55.900;8.516;2023-02-05T04:15:57;17.23;;;10.25;;
42098;SDS011;27758;55.900;8.516;2023-02-05T04:18:22;18.88;;;11.18;;
42098;SDS011;27758;55.900;8.516;2023-02-05T04:20:48;18.35;;;11.45;;
42098;SDS011;27758;55.900;8.516;2023-02-05T04:23:14;20.38;;;11.70;;
42098;SDS011;27758;55.900;8.516;2023-02-05T04:25:39;16.00;;;10.20;;
42098;SDS011;27758;55.900;8.516;2023-02-05T04:28:06;21.77;;;11.27;;
42098;SDS011;27758;55.900;8.516;2023-02-05T04:30:33;21.38;;;11.57;;
42098;SDS011;27758;55.900;8.516;2023-02-05T04:32:58;20.20;;;12.15;;
42098;SDS011;27758;55.900;8.516;2023-02-05T04:35:24;20.55;;;12.82;;
42098;SDS011;27758;55.900;8.516;2023-02-05T04:37:50;17.75;;;11.32;;
42098;SDS011;27758;55.900;8.516;2023-02-05T04:40:15;17.90;;;12.02;;
42098;SDS011;27758;55.900;8.516;2023-02-05T04:42:41;22.85;;;12.45;;
42098;SDS011;27758;55.900;8.516;2023-02-05T04:45:08;19.58;;;11.95;;
42098;SDS011;27758;55.900;8.516;2023-02-05T04:47:34;20.38;;;12.40;;
42098;SDS011;27758;55.900;8.516;2023-02-05T04:49:59;19.65;;;13.45;;
42098;SDS011;27758;55.900;8.516;2023-02-05T04:52:25;20.15;;;13.38;;
42098;SDS011;27758;55.900;8.516;2023-02-05T04:54:51;19.75;;;12.70;;
42098;SDS011;27758;55.900;8.516;2023-02-05T04:57:17;18.85;;;13.15;;
42098;SDS011;27758;55.900;8.516;2023-02-05T04:59:42;19.98;;;13.20;;
42098;SDS011;27758;55.900;8.516;2023-02-05T05:02:08;18.83;;;13.73;;
42098;SDS011;27758;55.900;8.516;2023-02-05T05:04:34;19.45;;;13.30;;
42098;SDS011;27758;55.900;8.516;2023-02-05T05:07:00;23.83;;;14.70;;
42098;SDS011;27758;55.900;8.516;2023-02-05T05:09:26;23.13;;;14.65;;
42098;SDS011;27758;55.900;8.516;2023-02-05T05:11:53;24.40;;;14.70;;
42098;SDS011;27758;55.900;8.516;2023-02-05T05:14:20;25.98;;;15.85;;
42098;SDS011;27758;55.900;8.516;2023-02-05T05:16:47;24.50;;;15.52;;
42098;SDS011;27758;55.900;8.516;2023-02-05T05:19:13;22.52;;;15.77;;
42098;SDS011;27758;55.900;8.516;2023-02-05T05:21:39;27.17;;;15.70;;
42098;SDS011;27758;55.900;8.516;2023-02-05T05:24:05;22.80;;;15.48;;
42098;SDS011;27758;55.900;8.516;2023-02-05T05:26:31;26.02;;;17.13;;
42098;SDS011;27758;55.900;8.516;2023-02-05T05:28:56;24.95;;;17.70;;
42098;SDS011;27758;55.900;8.516;2023-02-05T05:31:22;27.45;;;15.70;;
42098;SDS011;27758;55.900;8.516;2023-02-05T05:33:48;23.58;;;17.73;;
42098;SDS011;27758;55.900;8.516;2023-02-05T05:36:14;28.15;;;16.90;;
42098;SDS011;27758;55.900;8.516;2023-02-05T05:38:41;22.83;;;16.08;;
42098;SDS011;27758;55.900;8.516;2023-02-05T05:41:07;26.20;;;17.83;;
42098;SDS011;27758;55.900;8.516;2023-02-05T05:44:01;27.70;;;17.33;;
42098;SDS011;27758;55.900;8.516;2023-02-05T05:46:27;24.60;;;17.48;;
42098;SDS011;27758;55.900;8.516;2023-02-05T05:48:54;26.33;;;16.77;;
42098;SDS011;27758;55.900;8.516;2023-02-05T05:51:22;29.02;;;17.25;;
42098;SDS011;27758;55.900;8.516;2023-02-05T05:53:49;26.02;;;17.17;;
42098;SDS011;27758;55.900;8.516;2023-02-05T05:56:15;26.83;;;17.63;;
42098;SDS011;27758;55.900;8.516;2023-02-05T05:58:42;29.08;;;17.67;;
42098;SDS011;27758;55.900;8.516;2023-02-05T06:01:08;27.42;;;17.13;;
42098;SDS011;27758;55.900;8.516;2023-02-05T06:03:35;27.80;;;18.02;;
42098;SDS011;27758;55.900;8.516;2023-02-05T06:06:02;26.92;;;16.85;;
42098;SDS011;27758;55.900;8.516;2023-02-05T06:08:29;29.85;;;18.40;;
42098;SDS011;27758;55.900;8.516;2023-02-05T06:10:55;30.65;;;17.60;;
42098;SDS011;27758;55.900;8.516;2023-02-05T06:13:21;30.23;;;18.77;;
42098;SDS011;27758;55.900;8.516;2023-02-05T06:15:46;27.33;;;18.23;;
42098;SDS011;27758;55.900;8.516;2023-02-05T06:18:13;25.00;;;17.52;;
42098;SDS011;27758;55.900;8.516;2023-02-05T06:20:40;26.25;;;17.63;;
42098;SDS011;27758;55.900;8.516;2023-02-05T06:23:05;27.30;;;19.10;;
42098;SDS011;27758;55.900;8.516;2023-02-05T06:25:31;28.55;;;18.63;;
42098;SDS011;27758;55.900;8.516;2023-02-05T06:27:57;29.42;;;17.98;;
42098;SDS011;27758;55.900;8.516;2023-02-05T06:30:22;28.80;;;19.02;;
42098;SDS011;27758;55.900;8.516;2023-02-05T06:32:48;26.77;;;18.75;;
42098;SDS011;27758;55.900;8.516;2023-02-05T06:35:14;32.08;;;19.63;;
42098;SDS011;27758;55.900;8.516;2023-02-05T06:37:39;26.90;;;17.85;;
42098;SDS011;27758;55.900;8.516;2023-02-05T06:40:05;30.35;;;19.15;;
42098;SDS011;27758;55.900;8.516;2023-02-05T06:42:31;27.27;;;18.90;;
42098;SDS011;27758;55.900;8.516;2023-02-05T06:44:57;28.95;;;17.80;;
42098;SDS011;27758;55.900;8.516;2023-02-05T06:47:23;30.98;;;18.02;;
42098;SDS011;27758;55.900;8.516;2023-02-05T06:49:48;27.08;;;17.17;;
42098;SDS011;27758;55.900;8.516;2023-02-05T06:52:14;28.90;;;18.40;;
42098;SDS011;27758;55.900;8.516;2023-02-05T06:54:40;27.38;;;17.77;;
42098;SDS011;27758;55.900;8.516;2023-02-05T06:57:07;28.92;;;18.48;;
42098;SDS011;27758;55.900;8.516;2023-02-05T06:59:33;28.80;;;17.98;;
42098;SDS011;27758;55.900;8.516;2023-02-05T07:01:59;30.90;;;19.02;;
42098;SDS011;27758;55.900;8.516;2023-02-05T07:04:25;26.95;;;17.73;;
42098;SDS011;27758;55.900;8.516;2023-02-05T07:06:52;28.05;;;18.65;;
42098;SDS011;27758;55.900;8.516;2023-02-05T07:09:18;29.17;;;18.80;;
42098;SDS011;27758;55.900;8.516;2023-02-05T07:11:44;30.38;;;19.67;;
42098;SDS011;27758;55.900;8.516;2023-02-05T07:14:10;30.73;;;19.20;;
42098;SDS011;27758;55.900;8.516;2023-02-05T07:16:36;28.95;;;18.88;;
42098;SDS011;27758;55.900;8.516;2023-02-05T07:19:01;31.67;;;20.10;;
42098;SDS011;27758;55.900;8.516;2023-02-05T07:21:27;29.30;;;19.35;;
42098;SDS011;27758;55.900;8.516;2023-02-05T07:23:53;28.23;;;18.50;;
42098;SDS011;27758;55.900;8.516;2023-02-05T07:26:18;31.23;;;19.25;;
42098;SDS011;27758;55.900;8.516;2023-02-05T07:28:44;31.45;;;19.52;;
42098;SDS011;27758;55.900;8.516;2023-02-05T07:31:11;31.85;;;20.67;;
42098;SDS011;27758;55.900;8.516;2023-02-05T07:33:42;30.90;;;18.75;;
42098;SDS011;27758;55.900;8.516;2023-02-05T07:36:12;29.27;;;18.67;;
42098;SDS011;27758;55.900;8.516;2023-02-05T07:38:40;30.25;;;18.33;;
42098;SDS011;27758;55.900;8.516;2023-02-05T07:41:08;30.35;;;19.08;;
42098;SDS011;27758;55.900;8.516;2023-02-05T07:43:36;31.90;;;20.10;;
42098;SDS011;27758;55.900;8.516;2023-02-05T07:46:04;31.30;;;19.15;;
42098;SDS011;27758;55.900;8.516;2023-02-05T07:48:32;27.20;;;17.98;;
42098;SDS011;27758;55.900;8.516;2023-02-05T07:50:58;29.50;;;17.88;;
42098;SDS011;27758;55.900;8.516;2023-02-05T07:53:24;35.50;;;20.55;;
42098;SDS011;27758;55.900;8.516;2023-02-05T07:55:50;30.33;;;20.15;;
42098;SDS011;27758;55.900;8.516;2023-02-05T07:58:15;30.55;;;19.85;;
42098;SDS011;27758;55.900;8.516;2023-02-05T08:00:41;34.55;;;20.10;;
42098;SDS011;27758;55.900;8.516;2023-02-05T08:03:07;38.65;;;19.88;;
42098;SDS011;27758;55.900;8.516;2023-02-05T08:05:33;29.30;;;17.83;;
42098;SDS011;27758;55.900;8.516;2023-02-05T08:08:00;40.50;;;21.30;;
42098;SDS011;27758;55.900;8.516;2023-02-05T08:10:26;32.00;;;19.92;;
42098;SDS011;27758;55.900;8.516;2023-02-05T08:12:52;30.38;;;19.40;;
42098;SDS011;27758;55.900;8.516;2023-02-05T08:15:18;34.83;;;20.30;;
42098;SDS011;27758;55.900;8.516;2023-02-05T08:17:44;34.45;;;19.58;;
42098;SDS011;27758;55.900;8.516;2023-02-05T08:20:10;33.65;;;20.58;;
42098;SDS011;27758;55.900;8.516;2023-02-05T08:22:37;37.20;;;20.13;;
42098;SDS011;27758;55.900;8.516;2023-02-05T08:25:04;33.55;;;19.83;;
42098;SDS011;27758;55.900;8.516;2023-02-05T08:27:33;30.92;;;19.27;;
42098;SDS011;27758;55.900;8.516;2023-02-05T08:30:00;36.10;;;20.83;;
42098;SDS011;27758;55.900;8.516;2023-02-05T08:32:27;32.22;;;20.52;;
42098;SDS011;27758;55.900;8.516;2023-02-05T08:34:52;36.20;;;21.08;;
42098;SDS011;27758;55.900;8.516;2023-02-05T08:37:18;32.78;;;19.95;;
42098;SDS011;27758;55.900;8.516;2023-02-05T08:39:44;33.58;;;20.45;;
42098;SDS011;27758;55.900;8.516;2023-02-05T08:42:10;32.30;;;19.77;;
42098;SDS011;27758;55.900;8.516;2023-02-05T08:44:36;33.63;;;20.20;;
42098;SDS011;27758;55.900;8.516;2023-02-05T08:47:02;34.25;;;20.50;;
42098;SDS011;27758;55.900;8.516;2023-02-05T08:49:28;34.75;;;19.60;;
42098;SDS011;27758;55.900;8.516;2023-02-05T08:51:53;38.97;;;21.33;;
42098;SDS011;27758;55.900;8.516;2023-02-05T08:54:19;30.15;;;19.13;;
42098;SDS011;27758;55.900;8.516;2023-02-05T08:56:47;31.42;;;20.55;;
42098;SDS011;27758;55.900;8.516;2023-02-05T08:59:14;37.40;;;21.00;;
42098;SDS011;27758;55.900;8.516;2023-02-05T09:01:40;31.77;;;19.60;;
42098;SDS011;27758;55.900;8.516;2023-02-05T09:04:07;33.40;;;21.45;;
42098;SDS011;27758;55.900;8.516;2023-02-05T09:06:43;36.05;;;21.27;;
42098;SDS011;27758;55.900;8.516;2023-02-05T09:09:09;32.90;;;20.52;;
42098;SDS011;27758;55.900;8.516;2023-02-05T09:11:35;33.90;;;20.67;;
42098;SDS011;27758;55.900;8.516;2023-02-05T09:14:01;31.27;;;19.55;;
42098;SDS011;27758;55.900;8.516;2023-02-05T09:16:26;28.77;;;19.45;;
42098;SDS011;27758;55.900;8.516;2023-02-05T09:18:53;28.90;;;17.98;;
42098;SDS011;27758;55.900;8.516;2023-02-05T09:21:19;30.10;;;21.35;;
42098;SDS011;27758;55.900;8.516;2023-02-05T09:23:45;27.42;;;18.30;;
42098;SDS011;27758;55.900;8.516;2023-02-05T09:26:11;27.63;;;18.98;;
42098;SDS011;27758;55.900;8.516;2023-02-05T09:28:37;26.98;;;17.90;;
42098;SDS011;27758;55.900;8.516;2023-02-05T09:31:17;29.60;;;17.25;;
42098;SDS011;27758;55.900;8.516;2023-02-05T09:33:43;27.80;;;16.40;;
42098;SDS011;27758;55.900;8.516;2023-02-05T09:38:42;31.40;;;18.58;;
42098;SDS011;27758;55.900;8.516;2023-02-05T09:46:11;22.88;;;12.45;;
42098;SDS011;27758;55.900;8.516;2023-02-05T09:48:46;20.58;;;10.82;;
42098;SDS011;27758;55.900;8.516;2023-02-05T09:51:18;19.45;;;9.52;;
42098;SDS011;27758;55.900;8.516;2023-02-05T09:53:49;18.08;;;7.63;;
42098;SDS011;27758;55.900;8.516;2023-02-05T09:56:19;18.27;;;8.07;;
42098;SDS011;27758;55.900;8.516;2023-02-05T09:58:46;20.42;;;8.10;;
42098;SDS011;27758;55.900;8.516;2023-02-05T10:03:59;33.05;;;8.05;;
42098;SDS011;27758;55.900;8.516;2023-02-05T10:06:36;14.25;;;6.00;;
42098;SDS011;27758;55.900;8.516;2023-02-05T10:30:29;12.60;;;5.15;;
42098;SDS011;27758;55.900;8.516;2023-02-05T10:33:17;17.70;;;4.22;;
42098;SDS011;27758;55.900;8.516;2023-02-05T10:35:58;14.85;;;4.35;;
42098;SDS011;27758;55.900;8.516;2023-02-05T10:38:27;19.25;;;4.15;;
42098;SDS011;27758;55.900;8.516;2023-02-05T10:40:57;15.05;;;6.25;;
42098;SDS011;27758;55.900;8.516;2023-02-05T10:43:30;11.65;;;3.72;;
42098;SDS011;27758;55.900;8.516;2023-02-05T10:46:08;17.50;;;4.25;;
42098;SDS011;27758;55.900;8.516;2023-02-05T10:51:46;10.70;;;3.17;;
42098;SDS011;27758;55.900;8.516;2023-02-05T10:54:31;20.45;;;3.33;;
42098;SDS011;27758;55.900;8.516;2023-02-05T10:56:58;14.18;;;3.25;;
42098;SDS011;27758;55.900;8.516;2023-02-05T10:59:27;15.35;;;3.42;;
42098;SDS011;27758;55.900;8.516;2023-02-05T11:02:04;14.95;;;2.83;;
42098;SDS011;27758;55.900;8.516;2023-02-05T11:04:34;13.40;;;2.63;;
42098;SDS011;27758;55.900;8.516;2023-02-05T11:07:05;16.05;;;2.95;;
42098;SDS011;27758;55.900;8.516;2023-02-05T11:09:38;8.90;;;2.63;;
42098;SDS011;27758;55.900;8.516;2023-02-05T11:12:05;11.07;;;2.13;;
42098;SDS011;27758;55.900;8.516;2023-02-05T11:14:42;7.22;;;2.60;;
42098;SDS011;27758;55.900;8.516;2023-02-05T11:19:50;10.95;;;2.50;;
42098;SDS011;27758;55.900;8.516;2023-02-05T11:22:31;12.55;;;2.03;;
42098;SDS011;27758;55.900;8.516;2023-02-05T11:25:20;6.32;;;1.70;;
42098;SDS011;27758;55.900;8.516;2023-02-05T11:28:00;6.75;;;1.55;;
42098;SDS011;27758;55.900;8.516;2023-02-05T11:32:57;6.93;;;1.95;;
42098;SDS011;27758;55.900;8.516;2023-02-05T11:38:05;8.60;;;1.45;;
42098;SDS011;27758;55.900;8.516;2023-02-05T11:40:39;9.48;;;2.03;;
42098;SDS011;27758;55.900;8.516;2023-02-05T11:43:05;8.85;;;2.10;;
42098;SDS011;27758;55.900;8.516;2023-02-05T11:45:39;14.40;;;2.05;;
42098;SDS011;27758;55.900;8.516;2023-02-05T11:48:30;5.97;;;1.48;;
42098;SDS011;27758;55.900;8.516;2023-02-05T11:50:56;6.63;;;1.50;;
42098;SDS011;27758;55.900;8.516;2023-02-05T11:53:22;5.72;;;1.60;;
42098;SDS011;27758;55.900;8.516;2023-02-05T11:55:59;8.68;;;1.88;;
42098;SDS011;27758;55.900;8.516;2023-02-05T11:58:32;9.05;;;1.55;;
42098;SDS011;27758;55.900;8.516;2023-02-05T12:01:00;9.77;;;1.92;;
42098;SDS011;27758;55.900;8.516;2023-02-05T12:03:40;6.45;;;1.50;;
42098;SDS011;27758;55.900;8.516;2023-02-05T12:06:20;23.83;;;2.40;;
42098;SDS011;27758;55.900;8.516;2023-02-05T12:08:54;11.48;;;2.20;;
42098;SDS011;27758;55.900;8.516;2023-02-05T12:14:25;7.60;;;1.33;;
42098;SDS011;27758;55.900;8.516;2023-02-05T12:22:28;6.97;;;1.73;;
42098;SDS011;27758;55.900;8.516;2023-02-05T12:30:31;4.45;;;1.38;;
42098;SDS011;27758;55.900;8.516;2023-02-05T12:33:38;10.30;;;2.30;;
42098;SDS011;27758;55.900;8.516;2023-02-05T12:42:28;5.47;;;1.50;;
42098;SDS011;27758;55.900;8.516;2023-02-05T12:58:24;8.80;;;2.45;;
42098;SDS011;27758;55.900;8.516;2023-02-05T13:00:59;8.70;;;1.92;;
42098;SDS011;27758;55.900;8.516;2023-02-05T13:03:34;9.05;;;2.95;;
42098;SDS011;27758;55.900;8.516;2023-02-05T13:06:08;11.20;;;3.50;;
42098;SDS011;27758;55.900;8.516;2023-02-05T13:08:51;9.63;;;2.00;;
42098;SDS011;27758;55.900;8.516;2023-02-05T13:11:29;6.55;;;1.90;;
42098;SDS011;27758;55.900;8.516;2023-02-05T13:16:34;7.68;;;1.92;;
42098;SDS011;27758;55.900;8.516;2023-02-05T13:19:05;11.15;;;2.20;;
42098;SDS011;27758;55.900;8.516;2023-02-05T13:21:42;9.50;;;1.90;;
42098;SDS011;27758;55.900;8.516;2023-02-05T13:24:38;6.70;;;1.80;;
42098;SDS011;27758;55.900;8.516;2023-02-05T13:27:33;7.28;;;1.98;;
42098;SDS011;27758;55.900;8.516;2023-02-05T13:30:28;7.57;;;1.70;;
42098;SDS011;27758;55.900;8.516;2023-02-05T13:32:59;8.43;;;2.17;;
42098;SDS011;27758;55.900;8.516;2023-02-05T13:35:30;8.90;;;1.80;;
42098;SDS011;27758;55.900;8.516;2023-02-05T13:38:09;8.45;;;1.60;;
42098;SDS011;27758;55.900;8.516;2023-02-05T13:46:27;10.05;;;2.05;;
42098;SDS011;27758;55.900;8.516;2023-02-05T13:59:47;10.10;;;1.95;;
42098;SDS011;27758;55.900;8.516;2023-02-05T14:02:29;8.35;;;2.97;;
42098;SDS011;27758;55.900;8.516;2023-02-05T14:04:56;8.45;;;2.42;;
42098;SDS011;27758;55.900;8.516;2023-02-05T14:07:25;9.25;;;2.63;;
42098;SDS011;27758;55.900;8.516;2023-02-05T14:09:55;6.60;;;2.00;;
42098;SDS011;27758;55.900;8.516;2023-02-05T14:12:25;10.93;;;2.60;;
42098;SDS011;27758;55.900;8.516;2023-02-05T14:22:50;16.70;;;3.58;;
42098;SDS011;27758;55.900;8.516;2023-02-05T14:28:00;8.18;;;2.42;;
42098;SDS011;27758;55.900;8.516;2023-02-05T14:32:58;13.70;;;3.10;;
42098;SDS011;27758;55.900;8.516;2023-02-05T14:35:27;13.43;;;2.72;;
42098;SDS011;27758;55.900;8.516;2023-02-05T14:38:00;11.68;;;2.10;;
42098;SDS011;27758;55.900;8.516;2023-02-05T14:40:29;14.02;;;2.40;;
42098;SDS011;27758;55.900;8.516;2023-02-05T14:43:22;9.45;;;2.85;;
42098;SDS011;27758;55.900;8.516;2023-02-05T14:48:56;17.63;;;2.65;;
42098;SDS011;27758;55.900;8.516;2023-02-05T14:56:41;18.50;;;3.63;;
42098;SDS011;27758;55.900;8.516;2023-02-05T14:59:28;15.65;;;2.70;;
42098;SDS011;27758;55.900;8.516;2023-02-05T15:02:01;19.63;;;3.05;;
42098;SDS011;27758;55.900;8.516;2023-02-05T15:04:30;17.45;;;3.08;;
42098;SDS011;27758;55.900;8.516;2023-02-05T15:07:10;22.02;;;3.88;;
42098;SDS011;27758;55.900;8.516;2023-02-05T15:09:45;17.40;;;3.97;;
42098;SDS011;27758;55.900;8.516;2023-02-05T15:15:34;24.13;;;5.38;;
42098;SDS011;27758;55.900;8.516;2023-02-05T15:18:02;16.33;;;3.20;;
42098;SDS011;27758;55.900;8.516;2023-02-05T15:20:35;24.20;;;3.17;;
42098;SDS011;27758;55.900;8.516;2023-02-05T15:25:44;28.83;;;4.60;;
42098;SDS011;27758;55.900;8.516;2023-02-05T15:28:23;17.52;;;4.22;;
42098;SDS011;27758;55.900;8.516;2023-02-05T15:33:41;15.88;;;3.72;;
42098;SDS011;27758;55.900;8.516;2023-02-05T15:36:17;17.75;;;3.90;;
42098;SDS011;27758;55.900;8.516;2023-02-05T15:38:59;20.73;;;3.60;;
42098;SDS011;27758;55.900;8.516;2023-02-05T15:41:33;21.88;;;4.68;;
42098;SDS011;27758;55.900;8.516;2023-02-05T15:44:01;21.73;;;3.80;;
42098;SDS011;27758;55.900;8.516;2023-02-05T15:46:28;19.38;;;3.67;;
42098;SDS011;27758;55.900;8.516;2023-02-05T15:48:56;21.73;;;3.92;;
42098;SDS011;27758;55.900;8.516;2023-02-05T15:53:57;18.00;;;3.78;;
42098;SDS011;27758;55.900;8.516;2023-02-05T15:56:27;16.40;;;4.87;;
42098;SDS011;27758;55.900;8.516;2023-02-05T15:59:01;22.58;;;3.65;;
42098;SDS011;27758;55.900;8.516;2023-02-05T16:01:35;17.58;;;3.83;;
42098;SDS011;27758;55.900;8.516;2023-02-05T16:04:37;13.98;;;3.03;;
42098;SDS011;27758;55.900;8.516;2023-02-05T16:06:57;24.27;;;3.83;;
42098;SDS011;27758;55.900;8.516;2023-02-05T16:09:24;21.15;;;4.07;;
42098;SDS011;27758;55.900;8.516;2023-02-05T16:11:52;12.68;;;3.63;;
42098;SDS011;27758;55.900;8.516;2023-02-05T16:14:25;17.17;;;4.00;;
42098;SDS011;27758;55.900;8.516;2023-02-05T16:17:06;15.20;;;4.10;;
42098;SDS011;27758;55.900;8.516;2023-02-05T16:19:50;25.40;;;4.60;;
42098;SDS011;27758;55.900;8.516;2023-02-05T16:22:38;21.50;;;4.45;;
42098;SDS011;27758;55.900;8.516;2023-02-05T16:25:57;17.73;;;3.37;;
42098;SDS011;27758;55.900;8.516;2023-02-05T16:28:18;20.00;;;4.50;;
42098;SDS011;27758;55.900;8.516;2023-02-05T16:30:49;18.25;;;4.85;;
42098;SDS011;27758;55.900;8.516;2023-02-05T16:35:49;20.60;;;7.28;;
42098;SDS011;27758;55.900;8.516;2023-02-05T16:38:16;35.97;;;10.90;;
42098;SDS011;27758;55.900;8.516;2023-02-05T16:40:45;24.23;;;7.10;;
42098;SDS011;27758;55.900;8.516;2023-02-05T16:43:36;24.45;;;6.65;;
42098;SDS011;27758;55.900;8.516;2023-02-05T16:48:38;18.80;;;3.45;;
42098;SDS011;27758;55.900;8.516;2023-02-05T16:51:36;20.20;;;3.92;;
42098;SDS011;27758;55.900;8.516;2023-02-05T16:57:00;19.55;;;4.93;;
42098;SDS011;27758;55.900;8.516;2023-02-05T16:59:31;18.80;;;5.20;;
42098;SDS011;27758;55.900;8.516;2023-02-05T17:01:59;20.55;;;4.15;;
42098;SDS011;27758;55.900;8.516;2023-02-05T17:04:33;14.90;;;3.35;;
42098;SDS011;27758;55.900;8.516;2023-02-05T17:07:02;24.45;;;4.00;;
42098;SDS011;27758;55.900;8.516;2023-02-05T17:09:39;12.85;;;3.33;;
42098;SDS011;27758;55.900;8.516;2023-02-05T17:14:52;17.52;;;3.95;;
42098;SDS011;27758;55.900;8.516;2023-02-05T17:20:50;16.88;;;3.50;;
42098;SDS011;27758;55.900;8.516;2023-02-05T17:23:56;18.17;;;3.75;;
42098;SDS011;27758;55.900;8.516;2023-02-05T17:26:25;21.73;;;3.88;;
42098;SDS011;27758;55.900;8.516;2023-02-05T17:28:55;20.88;;;3.58;;
42098;SDS011;27758;55.900;8.516;2023-02-05T17:31:23;19.27;;;3.55;;
42098;SDS011;27758;55.900;8.516;2023-02-05T17:33:54;20.95;;;3.50;;
42098;SDS011;27758;55.900;8.516;2023-02-05T17:36:21;26.55;;;4.55;;
42098;SDS011;27758;55.900;8.516;2023-02-05T17:38:48;17.65;;;3.88;;
42098;SDS011;27758;55.900;8.516;2023-02-05T17:41:18;21.60;;;4.30;;
42098;SDS011;27758;55.900;8.516;2023-02-05T17:44:05;27.20;;;5.45;;